Time;durP1;ratioP1;P1;durP2;ratioP2;P2;SDS_P1;SDS_P2;PMS_P1;PMS_P2;Temp;Humidity;BMP_temperature;BMP_pressure;BME280_temperature;BME280_humidity;BME280_pressure;Samples;Min_cycle;Max_cycle;Signal;HPM_P1;HPM_P2
2023/11/08 00:00:06;;;;;;;2.35;1.05;;;;;;;;;;5053890;28;20025;-36
2023/11/08 00:02:32;;;;;;;2.67;1.20;;;;;;;;;;5053706;28;20132;-36
2023/11/08 00:04:58;;;;;;;2.05;1.15;;;;;;;;;;5053821;28;20033;-36
2023/11/08 00:07:24;;;;;;;4.88;1.40;;;;;;;;;;5035561;28;20033;-38
2023/11/08 00:09:50;;;;;;;3.00;1.15;;;;;;;;;;5053697;28;20086;-36
2023/11/08 00:12:17;;;;;;;1.98;1.00;;;;;;;;;;5053551;28;20025;-36
2023/11/08 00:14:43;;;;;;;2.97;1.30;;;;;;;;;;5053640;28;20021;-36
2023/11/08 00:17:09;;;;;;;2.67;1.23;;;;;;;;;;5053623;28;20400;-37
2023/11/08 00:19:35;;;;;;;2.28;1.10;;;;;;;;;;5053503;28;20041;-38
2023/11/08 00:22:01;;;;;;;1.88;1.10;;;;;;;;;;5053493;28;20029;-39
2023/11/08 00:24:27;;;;;;;3.53;1.38;;;;;;;;;;5053755;28;20367;-38
2023/11/08 00:26:54;;;;;;;2.45;1.17;;;;;;;;;;5052980;28;20108;-35
2023/11/08 00:29:22;;;;;;;2.08;1.17;;;;;;;;;;5053489;28;20021;-37
2023/11/08 00:31:50;;;;;;;2.08;1.13;;;;;;;;;;5053222;28;20028;-36
2023/11/08 00:34:16;;;;;;;2.53;1.10;;;;;;;;;;5053165;28;20610;-37
2023/11/08 00:36:42;;;;;;;2.05;1.08;;;;;;;;;;5053060;28;20017;-37
2023/11/08 00:39:08;;;;;;;2.78;1.02;;;;;;;;;;5052906;28;20086;-36
2023/11/08 00:41:35;;;;;;;2.47;1.10;;;;;;;;;;5053246;28;20096;-36
2023/11/08 00:44:01;;;;;;;1.48;0.93;;;;;;;;;;5053139;28;20029;-38
2023/11/08 00:46:27;;;;;;;3.60;1.10;;;;;;;;;;5052781;28;20033;-36
2023/11/08 00:48:53;;;;;;;2.28;0.93;;;;;;;;;;5052892;28;20070;-36
2023/11/08 00:51:19;;;;;;;1.67;0.80;;;;;;;;;;5052964;28;20425;-36
2023/11/08 00:53:46;;;;;;;2.70;0.93;;;;;;;;;;5053196;28;20466;-37
2023/11/08 00:56:12;;;;;;;1.58;0.95;;;;;;;;;;5052616;28;20028;-37
2023/11/08 00:58:38;;;;;;;1.88;0.90;;;;;;;;;;5052562;28;20040;-36
2023/11/08 01:01:05;;;;;;;2.03;0.90;;;;;;;;;;5052702;28;20525;-37
2023/11/08 01:03:32;;;;;;;1.70;1.00;;;;;;;;;;5052834;28;20543;-36
2023/11/08 01:05:58;;;;;;;3.97;0.95;;;;;;;;;;5052571;28;20039;-37
2023/11/08 01:08:24;;;;;;;2.78;1.00;;;;;;;;;;5052280;28;20028;-37
2023/11/08 01:10:51;;;;;;;2.80;0.90;;;;;;;;;;5052600;28;20079;-37
2023/11/08 01:13:18;;;;;;;1.85;0.80;;;;;;;;;;5052766;28;20028;-36
2023/11/08 01:15:44;;;;;;;1.38;0.93;;;;;;;;;;5052343;28;20096;-36
2023/11/08 01:18:11;;;;;;;2.88;1.15;;;;;;;;;;5052301;28;20044;-36
2023/11/08 01:20:37;;;;;;;1.50;0.90;;;;;;;;;;5052296;28;20489;-37
2023/11/08 01:23:04;;;;;;;4.88;1.20;;;;;;;;;;5052192;28;20489;-37
2023/11/08 01:25:30;;;;;;;2.33;0.73;;;;;;;;;;5052117;28;20048;-38
2023/11/08 01:27:56;;;;;;;2.15;0.85;;;;;;;;;;5051908;28;20032;-39
2023/11/08 01:30:23;;;;;;;2.08;1.00;;;;;;;;;;5052145;28;20025;-38
2023/11/08 01:32:49;;;;;;;1.10;0.63;;;;;;;;;;5052115;28;20032;-40
2023/11/08 01:35:15;;;;;;;2.15;0.70;;;;;;;;;;5052019;28;20100;-38
2023/11/08 01:37:41;;;;;;;2.45;1.00;;;;;;;;;;5051384;28;20390;-36
2023/11/08 01:40:08;;;;;;;2.03;0.90;;;;;;;;;;5052069;28;20028;-37
2023/11/08 01:42:34;;;;;;;2.72;1.10;;;;;;;;;;5034123;28;20025;-38
2023/11/08 01:45:02;;;;;;;1.58;0.85;;;;;;;;;;5051833;28;20049;-37
2023/11/08 01:47:28;;;;;;;1.88;0.80;;;;;;;;;;5051764;28;20412;-37
2023/11/08 01:49:54;;;;;;;1.90;0.70;;;;;;;;;;5051674;28;20021;-38
2023/11/08 01:52:22;;;;;;;3.92;0.95;;;;;;;;;;5051788;28;20100;-36
2023/11/08 01:54:49;;;;;;;2.83;1.13;;;;;;;;;;5051709;28;20039;-37
2023/11/08 01:57:17;;;;;;;2.30;0.73;;;;;;;;;;5051439;28;20056;-38
2023/11/08 01:59:46;;;;;;;2.40;0.82;;;;;;;;;;5034203;28;20039;-40
2023/11/08 02:02:12;;;;;;;2.20;0.80;;;;;;;;;;5051489;28;20118;-41
2023/11/08 02:04:38;;;;;;;1.85;0.80;;;;;;;;;;5051351;28;20025;-40
2023/11/08 02:07:04;;;;;;;4.78;0.90;;;;;;;;;;5051193;28;20017;-40
2023/11/08 02:09:30;;;;;;;2.22;1.10;;;;;;;;;;5051375;28;20024;-40
2023/11/08 02:12:00;;;;;;;1.35;0.70;;;;;;;;;;5051553;28;20444;-41
2023/11/08 02:14:28;;;;;;;0.93;0.60;;;;;;;;;;5051364;28;20040;-39
2023/11/08 02:16:54;;;;;;;3.08;0.90;;;;;;;;;;5051145;28;20099;-40
2023/11/08 02:19:20;;;;;;;1.88;0.95;;;;;;;;;;5051175;28;20025;-39
2023/11/08 02:21:46;;;;;;;1.77;0.70;;;;;;;;;;5051180;28;20048;-39
2023/11/08 02:24:20;;;;;;;1.70;0.73;;;;;;;;;;5051196;28;20025;-40
2023/11/08 02:26:47;;;;;;;1.83;0.80;;;;;;;;;;5050967;28;20033;-40
2023/11/08 02:29:14;;;;;;;2.92;0.75;;;;;;;;;;5051149;28;20044;-40
2023/11/08 02:31:40;;;;;;;2.58;0.70;;;;;;;;;;5051126;28;20021;-41
2023/11/08 02:34:06;;;;;;;2.10;0.70;;;;;;;;;;5051255;28;20094;-38
2023/11/08 02:36:33;;;;;;;1.00;0.70;;;;;;;;;;5050858;28;20025;-39
2023/11/08 02:38:59;;;;;;;2.45;0.70;;;;;;;;;;5051065;28;20397;-41
2023/11/08 02:41:25;;;;;;;1.95;0.63;;;;;;;;;;5051062;28;20087;-40
2023/11/08 02:43:51;;;;;;;1.88;0.80;;;;;;;;;;5051074;28;20024;-41
2023/11/08 02:46:17;;;;;;;1.60;0.80;;;;;;;;;;5050857;28;20017;-40
2023/11/08 02:48:43;;;;;;;0.82;0.60;;;;;;;;;;5051164;28;20475;-42
2023/11/08 02:51:09;;;;;;;1.85;0.70;;;;;;;;;;5055226;28;20032;-42
2023/11/08 02:53:35;;;;;;;1.63;0.70;;;;;;;;;;5055115;28;20079;-42
2023/11/08 02:56:02;;;;;;;1.80;0.88;;;;;;;;;;5054972;28;20025;-43
2023/11/08 02:58:28;;;;;;;1.38;0.63;;;;;;;;;;5054708;28;20040;-41
2023/11/08 03:00:56;;;;;;;1.63;0.85;;;;;;;;;;5054890;28;20362;-40
2023/11/08 03:03:22;;;;;;;1.95;0.85;;;;;;;;;;5054956;28;20024;-40
2023/11/08 03:05:48;;;;;;;2.63;1.00;;;;;;;;;;5054706;28;20028;-40
2023/11/08 03:08:14;;;;;;;2.35;0.65;;;;;;;;;;5054620;28;20108;-39
2023/11/08 03:10:41;;;;;;;2.88;0.63;;;;;;;;;;5054750;28;20063;-41
2023/11/08 03:13:07;;;;;;;1.75;0.75;;;;;;;;;;5054730;28;20024;-41
2023/11/08 03:15:33;;;;;;;1.35;0.63;;;;;;;;;;5054548;28;20111;-43
2023/11/08 03:17:59;;;;;;;1.20;0.63;;;;;;;;;;5054431;28;20036;-42
2023/11/08 03:20:25;;;;;;;1.83;0.70;;;;;;;;;;5054982;28;20071;-40
2023/11/08 03:22:51;;;;;;;2.42;0.80;;;;;;;;;;5054665;28;20086;-40
2023/11/08 03:25:17;;;;;;;1.50;0.63;;;;;;;;;;5054413;28;20064;-41
2023/11/08 03:27:44;;;;;;;3.05;1.00;;;;;;;;;;5054098;28;20104;-38
2023/11/08 03:30:12;;;;;;;6.18;0.90;;;;;;;;;;5054404;28;20393;-39
2023/11/08 03:32:38;;;;;;;5.07;0.80;;;;;;;;;;5054315;28;20147;-43
2023/11/08 03:35:05;;;;;;;2.47;0.82;;;;;;;;;;5054514;28;20096;-40
2023/11/08 03:37:34;;;;;;;2.63;0.90;;;;;;;;;;5036280;28;20033;-41
2023/11/08 03:40:02;;;;;;;1.63;0.70;;;;;;;;;;5054234;28;20078;-39
2023/11/08 03:42:28;;;;;;;2.53;0.80;;;;;;;;;;5054048;28;20017;-39
2023/11/08 03:44:54;;;;;;;2.15;0.70;;;;;;;;;;5054077;28;20055;-39
2023/11/08 03:47:20;;;;;;;3.03;0.82;;;;;;;;;;5053848;28;20021;-42
2023/11/08 03:49:46;;;;;;;2.03;1.00;;;;;;;;;;5053958;28;20025;-40
2023/11/08 03:52:12;;;;;;;2.53;0.80;;;;;;;;;;5053961;28;20013;-42
2023/11/08 03:54:38;;;;;;;1.85;0.80;;;;;;;;;;5054492;28;20017;-41
2023/11/08 03:57:05;;;;;;;2.05;0.60;;;;;;;;;;5053705;28;20025;-40
2023/11/08 03:59:31;;;;;;;3.28;0.77;;;;;;;;;;5053675;28;20037;-40
2023/11/08 04:01:57;;;;;;;1.20;0.77;;;;;;;;;;5053070;28;20025;-40
2023/11/08 04:04:23;;;;;;;1.55;0.65;;;;;;;;;;5053686;28;20025;-39
2023/11/08 04:06:49;;;;;;;2.03;0.73;;;;;;;;;;5053604;28;20029;-40
2023/11/08 04:09:15;;;;;;;2.45;0.80;;;;;;;;;;5053593;28;20581;-40
2023/11/08 04:11:41;;;;;;;1.42;0.60;;;;;;;;;;5053437;28;20394;-41
2023/11/08 04:14:07;;;;;;;1.85;0.88;;;;;;;;;;5053493;28;20078;-40
2023/11/08 04:16:39;;;;;;;1.63;0.70;;;;;;;;;;5053302;28;20110;-41
2023/11/08 04:19:07;;;;;;;2.35;0.82;;;;;;;;;;5053337;28;20428;-41
2023/11/08 04:21:33;;;;;;;1.80;0.80;;;;;;;;;;5053435;28;20036;-39
2023/11/08 04:23:59;;;;;;;3.58;0.70;;;;;;;;;;5053248;28;20025;-40
2023/11/08 04:26:25;;;;;;;1.67;0.73;;;;;;;;;;5053170;28;20025;-41
2023/11/08 04:28:51;;;;;;;4.50;0.93;;;;;;;;;;5035200;28;20021;-38
2023/11/08 04:31:17;;;;;;;3.22;0.80;;;;;;;;;;5053237;28;20067;-39
2023/11/08 04:33:44;;;;;;;2.92;0.88;;;;;;;;;;5053113;28;20028;-40
2023/11/08 04:36:12;;;;;;;0.95;0.55;;;;;;;;;;5053007;28;20044;-41
2023/11/08 04:38:39;;;;;;;1.33;0.50;;;;;;;;;;5052831;28;20025;-39
2023/11/08 04:41:07;;;;;;;2.80;0.70;;;;;;;;;;5053063;28;20519;-41
2023/11/08 04:43:35;;;;;;;1.98;0.80;;;;;;;;;;5052969;28;20021;-39
2023/11/08 04:46:02;;;;;;;1.67;0.70;;;;;;;;;;5052829;28;20103;-39
2023/11/08 04:48:28;;;;;;;1.20;0.70;;;;;;;;;;5052624;28;20025;-40
2023/11/08 04:50:54;;;;;;;3.28;1.00;;;;;;;;;;5053268;28;20053;-40
2023/11/08 04:53:20;;;;;;;2.20;0.90;;;;;;;;;;5052677;28;20032;-40
2023/11/08 04:55:46;;;;;;;1.08;0.50;;;;;;;;;;5052598;28;20470;-40
2023/11/08 04:58:12;;;;;;;1.50;0.77;;;;;;;;;;5052417;28;20044;-40
2023/11/08 05:00:38;;;;;;;1.08;0.70;;;;;;;;;;5052632;28;20024;-39
2023/11/08 05:03:04;;;;;;;2.58;0.88;;;;;;;;;;5052605;28;20020;-39
2023/11/08 05:05:30;;;;;;;1.27;0.68;;;;;;;;;;5052473;28;20490;-39
2023/11/08 05:07:56;;;;;;;2.70;0.70;;;;;;;;;;5052171;28;20434;-39
2023/11/08 05:10:22;;;;;;;2.08;0.60;;;;;;;;;;5052454;28;20024;-40
2023/11/08 05:12:48;;;;;;;0.80;0.50;;;;;;;;;;5051375;28;20532;-40
2023/11/08 05:15:14;;;;;;;1.67;0.80;;;;;;;;;;5052288;28;20021;-42
2023/11/08 05:17:43;;;;;;;0.85;0.43;;;;;;;;;;5052257;28;20036;-41
2023/11/08 05:20:10;;;;;;;2.92;1.00;;;;;;;;;;5052355;28;20106;-41
2023/11/08 05:22:39;;;;;;;1.83;0.80;;;;;;;;;;5052208;28;20029;-40
2023/11/08 05:25:06;;;;;;;1.40;0.77;;;;;;;;;;5052194;28;20021;-40
2023/11/08 05:27:32;;;;;;;2.13;0.95;;;;;;;;;;5052003;28;20398;-43
2023/11/08 05:29:58;;;;;;;2.00;0.80;;;;;;;;;;5052421;28;20025;-41
2023/11/08 05:32:24;;;;;;;3.42;0.80;;;;;;;;;;5052469;28;20104;-42
2023/11/08 05:34:50;;;;;;;1.85;0.70;;;;;;;;;;5052548;28;20028;-40
2023/11/08 05:37:17;;;;;;;1.40;0.70;;;;;;;;;;5052137;28;20052;-41
2023/11/08 05:39:44;;;;;;;1.52;0.55;;;;;;;;;;5051884;28;20072;-40
2023/11/08 05:42:10;;;;;;;1.42;0.70;;;;;;;;;;5051900;28;20029;-40
2023/11/08 05:44:36;;;;;;;1.80;0.70;;;;;;;;;;5051910;28;20035;-41
2023/11/08 05:47:02;;;;;;;3.97;1.20;;;;;;;;;;5051877;28;20025;-40
2023/11/08 05:49:28;;;;;;;4.50;1.08;;;;;;;;;;5051664;28;20512;-42
2023/11/08 05:51:54;;;;;;;5.15;1.30;;;;;;;;;;5051799;28;20394;-41
2023/11/08 05:54:20;;;;;;;4.35;1.25;;;;;;;;;;5051779;28;20454;-44
2023/11/08 05:56:46;;;;;;;5.28;1.50;;;;;;;;;;5051536;28;20383;-42
2023/11/08 05:59:14;;;;;;;3.65;1.25;;;;;;;;;;5051566;28;20055;-42
2023/11/08 06:01:41;;;;;;;4.28;1.17;;;;;;;;;;5051587;28;20021;-41
2023/11/08 06:04:07;;;;;;;3.17;1.02;;;;;;;;;;5051423;28;20131;-40
2023/11/08 06:06:35;;;;;;;2.08;0.95;;;;;;;;;;5051419;28;20025;-42
2023/11/08 06:09:02;;;;;;;3.13;1.13;;;;;;;;;;5051523;28;20163;-42
2023/11/08 06:11:28;;;;;;;5.40;1.30;;;;;;;;;;5051591;28;20475;-39
2023/11/08 06:13:54;;;;;;;4.13;1.08;;;;;;;;;;5051404;28;20025;-41
2023/11/08 06:16:20;;;;;;;2.97;1.08;;;;;;;;;;5051258;28;20056;-40
2023/11/08 06:18:46;;;;;;;2.08;1.10;;;;;;;;;;5051074;28;20082;-39
2023/11/08 06:21:15;;;;;;;3.60;1.10;;;;;;;;;;5051414;28;20029;-39
2023/11/08 06:23:44;;;;;;;2.33;1.00;;;;;;;;;;5050990;28;20359;-42
2023/11/08 06:26:17;;;;;;;3.47;1.00;;;;;;;;;;5051130;28;20473;-40
2023/11/08 06:28:44;;;;;;;4.13;1.05;;;;;;;;;;5051091;28;20025;-42
2023/11/08 06:31:13;;;;;;;2.58;1.10;;;;;;;;;;5050984;28;20032;-40
2023/11/08 06:33:39;;;;;;;2.47;0.80;;;;;;;;;;5051235;28;20100;-42
2023/11/08 06:36:06;;;;;;;2.35;0.82;;;;;;;;;;5051150;28;20033;-41
2023/11/08 06:38:32;;;;;;;4.15;1.00;;;;;;;;;;5051104;28;20028;-40
2023/11/08 06:40:58;;;;;;;3.50;0.90;;;;;;;;;;5051123;28;20017;-42
2023/11/08 06:43:24;;;;;;;3.53;1.30;;;;;;;;;;5051122;28;20044;-42
2023/11/08 06:45:50;;;;;;;3.13;0.90;;;;;;;;;;5050958;28;20075;-42
2023/11/08 06:48:16;;;;;;;3.10;0.90;;;;;;;;;;5050895;28;20069;-41
2023/11/08 06:50:43;;;;;;;1.60;0.98;;;;;;;;;;5051147;28;20029;-45
2023/11/08 06:53:09;;;;;;;2.90;1.00;;;;;;;;;;5051241;28;20032;-41
2023/11/08 06:55:35;;;;;;;2.53;1.00;;;;;;;;;;5051629;28;20031;-42
2023/11/08 06:58:01;;;;;;;2.40;0.93;;;;;;;;;;5050754;28;20040;-42
2023/11/08 07:00:28;;;;;;;2.25;1.20;;;;;;;;;;5050777;28;20021;-40
2023/11/08 07:02:54;;;;;;;4.03;1.40;;;;;;;;;;5050940;28;20036;-43
2023/11/08 07:05:20;;;;;;;3.60;1.13;;;;;;;;;;5050986;28;20029;-40
2023/11/08 07:07:46;;;;;;;2.28;1.10;;;;;;;;;;5050712;28;20058;-41
2023/11/08 07:10:12;;;;;;;3.45;1.20;;;;;;;;;;5051334;28;20386;-40
2023/11/08 07:12:41;;;;;;;2.45;1.10;;;;;;;;;;5050955;28;20025;-41
2023/11/08 07:15:07;;;;;;;2.60;0.98;;;;;;;;;;5050903;28;20510;-44
2023/11/08 07:17:36;;;;;;;3.22;1.25;;;;;;;;;;5050825;28;20085;-39
2023/11/08 07:20:06;;;;;;;2.53;1.25;;;;;;;;;;5051373;28;20033;-41
2023/11/08 07:22:33;;;;;;;2.92;1.02;;;;;;;;;;5050845;28;20025;-42
2023/11/08 07:24:59;;;;;;;2.25;1.00;;;;;;;;;;5050841;28;20021;-43
2023/11/08 07:27:25;;;;;;;5.43;1.50;;;;;;;;;;5050371;28;20021;-41
2023/11/08 07:29:51;;;;;;;6.93;2.50;;;;;;;;;;5050603;28;20043;-41
2023/11/08 07:32:18;;;;;;;5.30;2.05;;;;;;;;;;5050627;28;20029;-38
2023/11/08 07:34:44;;;;;;;5.50;2.00;;;;;;;;;;5050557;28;20552;-39
2023/11/08 07:37:13;;;;;;;7.10;1.98;;;;;;;;;;5052901;28;20040;-40
2023/11/08 07:39:39;;;;;;;4.55;1.58;;;;;;;;;;5054233;28;20049;-41
2023/11/08 07:42:05;;;;;;;5.63;1.80;;;;;;;;;;5054077;28;20081;-41
2023/11/08 07:44:31;;;;;;;5.65;1.80;;;;;;;;;;5054333;28;20427;-41
2023/11/08 07:46:57;;;;;;;5.28;1.85;;;;;;;;;;5053759;28;20025;-40
2023/11/08 07:49:24;;;;;;;4.50;1.80;;;;;;;;;;5053968;28;20025;-40
2023/11/08 07:51:51;;;;;;;4.32;1.70;;;;;;;;;;5053990;28;20090;-40
2023/11/08 07:54:17;;;;;;;5.47;1.83;;;;;;;;;;5053934;28;20017;-41
2023/11/08 07:56:43;;;;;;;4.85;1.88;;;;;;;;;;5053725;28;20505;-41
2023/11/08 07:59:10;;;;;;;5.38;1.90;;;;;;;;;;5054194;28;20036;-39
2023/11/08 08:01:36;;;;;;;2.70;1.50;;;;;;;;;;5053986;28;20083;-39
2023/11/08 08:04:03;;;;;;;5.28;1.60;;;;;;;;;;5053754;28;20029;-39
2023/11/08 08:06:29;;;;;;;3.55;1.33;;;;;;;;;;5053511;28;20490;-39
2023/11/08 08:08:57;;;;;;;5.65;1.90;;;;;;;;;;5053492;28;20029;-39
2023/11/08 08:11:23;;;;;;;3.80;1.73;;;;;;;;;;5053572;28;20371;-39
2023/11/08 08:13:49;;;;;;;3.58;1.38;;;;;;;;;;5053453;28;20502;-39
2023/11/08 08:16:19;;;;;;;4.95;2.08;;;;;;;;;;5053445;28;20021;-39
2023/11/08 08:18:46;;;;;;;3.85;1.67;;;;;;;;;;5053357;28;20031;-38
2023/11/08 08:21:12;;;;;;;3.97;1.45;;;;;;;;;;5053427;28;20410;-39
2023/11/08 08:23:38;;;;;;;3.38;1.40;;;;;;;;;;5053306;28;20024;-39
2023/11/08 08:26:05;;;;;;;3.78;1.60;;;;;;;;;;5053261;28;20138;-39
2023/11/08 08:28:37;;;;;;;3.50;1.60;;;;;;;;;;5053098;28;20029;-39
2023/11/08 08:31:03;;;;;;;4.13;1.58;;;;;;;;;;5053308;28;20036;-39
2023/11/08 08:33:29;;;;;;;4.03;1.20;;;;;;;;;;5053183;28;20508;-39
2023/11/08 08:35:56;;;;;;;3.53;1.30;;;;;;;;;;5053070;28;20017;-39
2023/11/08 08:38:23;;;;;;;1.98;1.08;;;;;;;;;;5052921;28;20111;-39
2023/11/08 08:40:49;;;;;;;3.58;1.40;;;;;;;;;;5053104;28;20343;-39
2023/11/08 08:43:17;;;;;;;3.97;1.40;;;;;;;;;;5052961;28;20063;-39
2023/11/08 08:45:44;;;;;;;3.28;1.50;;;;;;;;;;5052907;28;20498;-39
2023/11/08 08:48:10;;;;;;;2.60;1.50;;;;;;;;;;5052620;28;20107;-39
2023/11/08 08:50:37;;;;;;;3.63;1.52;;;;;;;;;;5052919;28;20080;-39
2023/11/08 08:53:03;;;;;;;3.00;1.25;;;;;;;;;;5053011;28;20028;-39
2023/11/08 08:55:29;;;;;;;2.45;1.10;;;;;;;;;;5052708;28;20024;-39
2023/11/08 08:57:55;;;;;;;3.25;1.40;;;;;;;;;;5052448;28;20040;-39
2023/11/08 09:00:23;;;;;;;4.88;1.50;;;;;;;;;;5052756;28;20024;-39
2023/11/08 09:02:49;;;;;;;2.90;1.40;;;;;;;;;;5052682;28;20056;-39
2023/11/08 09:05:18;;;;;;;4.22;1.60;;;;;;;;;;5052497;28;20385;-39
2023/11/08 09:07:45;;;;;;;4.07;1.05;;;;;;;;;;5052388;28;20025;-39
2023/11/08 09:10:11;;;;;;;3.20;1.38;;;;;;;;;;5052503;28;20078;-39
2023/11/08 09:12:37;;;;;;;2.50;1.20;;;;;;;;;;5052369;28;20471;-38
2023/11/08 09:15:04;;;;;;;3.20;1.30;;;;;;;;;;5052282;28;20025;-39
2023/11/08 09:17:31;;;;;;;4.95;1.58;;;;;;;;;;5052205;28;20025;-39
2023/11/08 09:19:57;;;;;;;1.77;1.00;;;;;;;;;;5052170;28;20028;-39
2023/11/08 09:22:23;;;;;;;2.72;1.20;;;;;;;;;;5052232;28;20031;-39
2023/11/08 09:24:49;;;;;;;2.33;1.15;;;;;;;;;;5052190;28;20036;-39
2023/11/08 09:27:15;;;;;;;1.95;1.20;;;;;;;;;;5051769;28;20040;-39
2023/11/08 09:29:41;;;;;;;4.43;1.50;;;;;;;;;;5052092;28;20494;-39
2023/11/08 09:32:07;;;;;;;5.53;1.45;;;;;;;;;;5052041;28;20477;-39
2023/11/08 09:34:34;;;;;;;2.22;1.10;;;;;;;;;;5051833;28;20082;-39
2023/11/08 09:37:01;;;;;;;4.03;1.30;;;;;;;;;;5051806;28;20435;-39
2023/11/08 09:39:28;;;;;;;2.50;1.20;;;;;;;;;;5051951;28;20540;-39
2023/11/08 09:41:56;;;;;;;2.28;1.40;;;;;;;;;;5051945;28;20048;-39
2023/11/08 09:44:24;;;;;;;3.60;1.48;;;;;;;;;;5051892;28;20021;-39
2023/11/08 09:46:50;;;;;;;2.75;1.30;;;;;;;;;;5051648;28;20104;-39
2023/11/08 09:49:17;;;;;;;4.63;1.13;;;;;;;;;;5033987;28;20470;-39
2023/11/08 09:51:43;;;;;;;3.75;1.15;;;;;;;;;;5051683;28;20056;-38
2023/11/08 09:54:12;;;;;;;2.60;1.20;;;;;;;;;;5051654;28;20025;-39
2023/11/08 09:56:43;;;;;;;5.40;1.10;;;;;;;;;;5051464;28;20486;-38
2023/11/08 09:59:09;;;;;;;2.90;1.27;;;;;;;;;;5051042;28;20035;-39
2023/11/08 10:01:37;;;;;;;2.58;1.30;;;;;;;;;;5051616;28;20029;-39
2023/11/08 10:04:03;;;;;;;2.35;1.20;;;;;;;;;;5051776;28;20114;-39
2023/11/08 10:06:31;;;;;;;3.42;1.30;;;;;;;;;;5051301;28;20025;-38
2023/11/08 10:08:58;;;;;;;3.17;1.48;;;;;;;;;;5051348;28;20044;-39
2023/11/08 10:11:28;;;;;;;2.35;1.02;;;;;;;;;;5051368;28;20098;-38
2023/11/08 10:13:55;;;;;;;2.40;1.20;;;;;;;;;;5051525;28;20032;-39
2023/11/08 10:16:22;;;;;;;3.92;1.42;;;;;;;;;;5033353;28;20025;-38
2023/11/08 10:18:58;;;;;;;2.38;1.52;;;;;;;;;;5051191;28;20544;-39
2023/11/08 10:21:26;;;;;;;2.05;0.95;;;;;;;;;;5051559;28;20036;-39
2023/11/08 10:23:55;;;;;;;2.38;1.25;;;;;;;;;;5051327;28;20029;-39
2023/11/08 10:26:26;;;;;;;3.85;1.40;;;;;;;;;;5051187;28;20025;-38
2023/11/08 10:28:56;;;;;;;2.65;0.98;;;;;;;;;;5051325;28;20033;-39
2023/11/08 10:31:29;;;;;;;2.72;1.27;;;;;;;;;;5051407;28;20354;-38
2023/11/08 10:33:58;;;;;;;2.78;1.10;;;;;;;;;;5051259;28;20021;-39
2023/11/08 10:36:26;;;;;;;2.20;0.90;;;;;;;;;;5051082;28;20067;-39
2023/11/08 10:38:52;;;;;;;1.73;0.98;;;;;;;;;;5051087;28;20025;-39
2023/11/08 10:41:18;;;;;;;2.85;1.20;;;;;;;;;;5051020;28;20094;-39
2023/11/08 10:43:44;;;;;;;1.45;1.00;;;;;;;;;;5051090;28;20032;-39
2023/11/08 10:46:11;;;;;;;1.77;1.00;;;;;;;;;;5050926;28;20033;-38
2023/11/08 10:48:37;;;;;;;2.88;1.10;;;;;;;;;;5050855;28;20078;-39
2023/11/08 10:51:05;;;;;;;1.95;0.90;;;;;;;;;;5051079;28;20025;-39
2023/11/08 10:53:32;;;;;;;2.22;0.90;;;;;;;;;;5051436;28;20048;-39
2023/11/08 10:56:01;;;;;;;2.53;0.93;;;;;;;;;;5050829;28;20025;-39
2023/11/08 10:58:33;;;;;;;2.83;0.85;;;;;;;;;;5050718;28;20036;-39
2023/11/08 11:01:02;;;;;;;1.67;0.95;;;;;;;;;;5050969;28;20032;-43
2023/11/08 11:03:29;;;;;;;1.00;0.70;;;;;;;;;;5033056;28;20037;-38
2023/11/08 11:05:57;;;;;;;1.98;1.00;;;;;;;;;;5050789;28;20170;-38
2023/11/08 11:08:23;;;;;;;1.17;0.70;;;;;;;;;;5050419;28;20025;-38
2023/11/08 11:10:50;;;;;;;2.13;1.00;;;;;;;;;;5051393;28;20028;-39
2023/11/08 11:13:23;;;;;;;2.60;0.88;;;;;;;;;;5054929;28;20021;-39
2023/11/08 11:15:55;;;;;;;1.65;0.80;;;;;;;;;;5036798;28;20041;-39
2023/11/08 11:18:26;;;;;;;2.05;1.00;;;;;;;;;;5054463;28;20128;-39
2023/11/08 11:20:55;;;;;;;1.38;0.70;;;;;;;;;;5054515;28;20052;-39
2023/11/08 11:23:33;;;;;;;1.38;0.90;;;;;;;;;;5054519;28;20029;-38
2023/11/08 11:25:59;;;;;;;1.48;0.60;;;;;;;;;;5054433;28;20104;-39
2023/11/08 11:28:44;;;;;;;1.27;0.70;;;;;;;;;;5054246;28;20207;-38
2023/11/08 11:31:29;;;;;;;1.23;0.70;;;;;;;;;;5054257;28;20028;-38
2023/11/08 11:33:55;;;;;;;1.73;0.77;;;;;;;;;;5054527;28;20102;-38
2023/11/08 11:36:22;;;;;;;1.33;0.68;;;;;;;;;;5054262;28;20453;-39
2023/11/08 11:39:07;;;;;;;1.80;0.75;;;;;;;;;;5054123;28;20024;-38
2023/11/08 11:41:36;;;;;;;2.03;1.08;;;;;;;;;;5053993;28;20025;-39
2023/11/08 11:44:05;;;;;;;1.80;0.80;;;;;;;;;;5054100;28;20536;-39
2023/11/08 11:46:33;;;;;;;1.23;0.75;;;;;;;;;;5054134;28;20029;-39
2023/11/08 11:49:10;;;;;;;0.75;0.60;;;;;;;;;;5053931;28;20025;-39
2023/11/08 11:51:39;;;;;;;1.10;0.80;;;;;;;;;;5054107;28;20021;-39
2023/11/08 11:54:06;;;;;;;1.10;0.70;;;;;;;;;;5053813;28;20017;-38
2023/11/08 11:56:32;;;;;;;1.83;0.93;;;;;;;;;;5053802;28;20017;-39
2023/11/08 11:58:59;;;;;;;0.80;0.40;;;;;;;;;;5053740;28;20048;-39
2023/11/08 12:01:25;;;;;;;1.65;0.50;;;;;;;;;;5053781;28;20029;-39
2023/11/08 12:03:52;;;;;;;1.58;0.70;;;;;;;;;;5053805;28;20398;-39
2023/11/08 12:06:18;;;;;;;1.25;0.60;;;;;;;;;;5053685;28;20375;-38
2023/11/08 12:08:44;;;;;;;2.10;0.80;;;;;;;;;;5053306;28;20031;-39
2023/11/08 12:11:12;;;;;;;1.25;0.70;;;;;;;;;;5053602;28;20021;-38
2023/11/08 12:13:58;;;;;;;1.13;0.70;;;;;;;;;;5049516;28;20059;-39
2023/11/08 12:16:24;;;;;;;1.15;0.70;;;;;;;;;;5053530;28;20025;-39
2023/11/08 12:18:51;;;;;;;0.88;0.50;;;;;;;;;;5053726;28;20032;-39
2023/11/08 12:21:18;;;;;;;0.93;0.50;;;;;;;;;;5035580;28;20025;-38
2023/11/08 12:23:46;;;;;;;0.95;0.40;;;;;;;;;;5053306;28;20036;-39
2023/11/08 12:26:13;;;;;;;1.20;0.50;;;;;;;;;;5053520;28;20067;-38
2023/11/08 12:28:40;;;;;;;0.95;0.40;;;;;;;;;;5053296;28;20518;-38
2023/11/08 12:31:07;;;;;;;2.15;0.50;;;;;;;;;;5053261;28;20481;-38
2023/11/08 12:33:33;;;;;;;0.95;0.40;;;;;;;;;;5053358;28;20380;-38
2023/11/08 12:36:00;;;;;;;1.17;0.40;;;;;;;;;;5053216;28;20025;-39
2023/11/08 12:38:26;;;;;;;11.13;0.77;;;12.60;99.90;;;;;;5053055;28;20029;-34
2023/11/08 12:41:05;;;;;;;3.25;0.50;;;13.00;99.90;;;;;;5025817;28;20052;-39
2023/11/08 12:43:31;;;;;;;1.98;0.50;;;13.50;99.90;;;;;;5030480;28;20049;-39
2023/11/08 12:46:15;;;;;;;0.90;0.35;;;13.20;99.90;;;;;;5013509;28;20075;-39
2023/11/08 12:48:40;;;;;;;4.22;0.80;;;13.00;99.90;;;;;;5013822;28;20065;-39
2023/11/08 12:51:07;;;;;;;1.60;0.52;;;12.90;99.90;;;;;;5013335;28;20053;-39
2023/11/08 12:53:34;;;;;;;0.88;0.40;;;12.80;99.90;;;;;;5012046;28;20380;-39
2023/11/08 12:56:05;;;;;;;1.33;0.55;;;12.70;99.90;;;;;;5013585;28;20404;-39
2023/11/08 12:58:33;;;;;;;1.75;0.40;;;12.70;99.90;;;;;;5012969;28;20048;-39
2023/11/08 13:01:00;;;;;;;1.23;0.50;;;12.70;99.90;;;;;;5013622;28;20053;-40
2023/11/08 13:03:26;;;;;;;1.63;0.52;;;12.70;99.90;;;;;;5013507;28;20030;-39
2023/11/08 13:05:58;;;;;;;3.42;0.40;;;12.70;99.90;;;;;;5013248;28;20026;-39
2023/11/08 13:08:27;;;;;;;0.98;0.50;;;12.70;99.90;;;;;;5013142;28;20479;-39
2023/11/08 13:10:54;;;;;;;1.63;0.55;;;12.70;99.90;;;;;;5013380;28;20029;-39
2023/11/08 13:13:20;;;;;;;1.02;0.50;;;12.60;99.90;;;;;;5013349;28;20277;-39
2023/11/08 13:15:50;;;;;;;1.40;0.40;;;12.60;99.90;;;;;;5013248;28;20470;-41
2023/11/08 13:18:15;;;;;;;0.95;0.30;;;12.60;99.90;;;;;;5013114;28;20057;-39
2023/11/08 13:20:42;;;;;;;3.00;0.40;;;12.60;99.90;;;;;;5013257;28;20107;-40
2023/11/08 13:23:08;;;;;;;1.65;0.47;;;12.60;99.90;;;;;;5013177;28;20237;-41
2023/11/08 13:25:34;;;;;;;3.15;0.70;;;12.60;99.90;;;;;;5012752;28;20401;-39
2023/11/08 13:28:00;;;;;;;1.10;0.47;;;12.60;99.90;;;;;;5012574;28;20084;-39
2023/11/08 13:30:27;;;;;;;1.80;0.50;;;12.50;99.90;;;;;;5013160;28;20069;-39
2023/11/08 13:32:53;;;;;;;0.93;0.40;;;12.50;99.90;;;;;;5012755;28;20065;-39
2023/11/08 13:35:19;;;;;;;1.05;0.40;;;12.50;99.90;;;;;;5012108;28;20018;-39
2023/11/08 13:37:45;;;;;;;1.50;0.60;;;12.50;99.90;;;;;;5012574;28;20079;-39
2023/11/08 13:40:11;;;;;;;1.02;0.43;;;12.50;99.90;;;;;;5012631;28;20045;-39
2023/11/08 13:42:40;;;;;;;0.95;0.40;;;12.50;99.90;;;;;;5012619;28;20061;-40
2023/11/08 13:45:07;;;;;;;1.73;0.50;;;12.40;99.90;;;;;;5012572;28;20438;-39
2023/11/08 13:47:33;;;;;;;1.30;0.50;;;12.40;99.90;;;;;;5012317;28;20026;-39
2023/11/08 13:49:59;;;;;;;1.50;0.47;;;12.40;99.90;;;;;;5012446;28;20064;-40
2023/11/08 13:52:25;;;;;;;1.52;0.55;;;12.40;99.90;;;;;;5012648;28;20014;-40
2023/11/08 13:54:50;;;;;;;3.22;0.40;;;12.40;99.90;;;;;;5012514;28;20045;-39
2023/11/08 13:57:17;;;;;;;0.90;0.50;;;12.40;99.90;;;;;;5011802;28;20026;-39
2023/11/08 13:59:43;;;;;;;2.70;0.40;;;12.40;99.90;;;;;;5012976;28;20100;-38
2023/11/08 14:02:09;;;;;;;1.55;0.40;;;12.40;99.90;;;;;;5012181;28;20022;-37
2023/11/08 14:04:35;;;;;;;0.60;0.40;;;12.40;99.90;;;;;;5012173;28;20467;-38
2023/11/08 14:07:01;;;;;;;0.80;0.30;;;12.40;99.90;;;;;;5011831;28;20433;-38
2023/11/08 14:09:26;;;;;;;1.88;0.40;;;12.40;99.90;;;;;;5012278;28;20034;-38
2023/11/08 14:11:52;;;;;;;0.70;0.30;;;12.30;99.90;;;;;;5012274;28;20395;-39
2023/11/08 14:14:19;;;;;;;1.77;0.65;;;12.40;99.90;;;;;;5012043;28;20026;-38
2023/11/08 14:16:45;;;;;;;1.10;0.50;;;12.30;99.90;;;;;;5010561;28;20041;-38
2023/11/08 14:19:11;;;;;;;0.93;0.30;;;12.30;99.90;;;;;;5011899;28;20022;-39
2023/11/08 14:21:36;;;;;;;2.03;0.30;;;12.30;99.90;;;;;;5012101;28;20116;-39
2023/11/08 14:24:02;;;;;;;1.25;0.40;;;12.30;99.90;;;;;;5011767;28;20471;-37